sensor_id;sensor_type;location;lat;lon;timestamp;temperature;humidity
63371;DHT22;49504;48.336;14.472;2022-10-22T00:03:48;25.60;51.20
63371;DHT22;49504;48.336;14.472;2022-10-22T00:08:49;25.60;51.20
63371;DHT22;49504;48.336;14.472;2022-10-22T00:13:50;25.60;51.00
63371;DHT22;49504;48.336;14.472;2022-10-22T00:21:04;25.60;50.60
63371;DHT22;49504;48.336;14.472;2022-10-22T00:28:00;25.60;50.60
63371;DHT22;49504;48.336;14.472;2022-10-22T00:33:01;25.60;51.30
63371;DHT22;49504;48.336;14.472;2022-10-22T00:41:16;25.60;50.70
63371;DHT22;49504;48.336;14.472;2022-10-22T00:46:17;25.60;51.30
63371;DHT22;49504;48.336;14.472;2022-10-22T00:51:19;25.60;51.30
63371;DHT22;49504;48.336;14.472;2022-10-22T00:56:23;25.60;51.30
63371;DHT22;49504;48.336;14.472;2022-10-22T01:05:53;25.60;50.70
63371;DHT22;49504;48.336;14.472;2022-10-22T01:11:05;25.60;51.20
63371;DHT22;49504;48.336;14.472;2022-10-22T01:16:11;25.60;51.90
63371;DHT22;49504;48.336;14.472;2022-10-22T01:21:58;25.60;50.70
63371;DHT22;49504;48.336;14.472;2022-10-22T01:30:58;25.60;50.70
63371;DHT22;49504;48.336;14.472;2022-10-22T01:35:59;25.60;51.30
63371;DHT22;49504;48.336;14.472;2022-10-22T01:45:42;25.60;50.80
63371;DHT22;49504;48.336;14.472;2022-10-22T01:50:59;25.60;51.40
63371;DHT22;49504;48.336;14.472;2022-10-22T01:56:27;25.60;51.40
63371;DHT22;49504;48.336;14.472;2022-10-22T02:01:38;25.60;51.40
63371;DHT22;49504;48.336;14.472;2022-10-22T02:06:43;25.60;51.40
63371;DHT22;49504;48.336;14.472;2022-10-22T02:11:46;25.60;51.50
63371;DHT22;49504;48.336;14.472;2022-10-22T02:17:48;25.50;50.80
63371;DHT22;49504;48.336;14.472;2022-10-22T02:22:49;25.60;51.50
63371;DHT22;49504;48.336;14.472;2022-10-22T02:29:31;25.50;50.80
63371;DHT22;49504;48.336;14.472;2022-10-22T02:34:34;25.60;51.50
63371;DHT22;49504;48.336;14.472;2022-10-22T02:40:45;25.50;50.80
63371;DHT22;49504;48.336;14.472;2022-10-22T02:45:46;25.60;51.50
63371;DHT22;49504;48.336;14.472;2022-10-22T02:50:47;25.50;51.40
63371;DHT22;49504;48.336;14.472;2022-10-22T02:55:49;25.50;51.40
63371;DHT22;49504;48.336;14.472;2022-10-22T03:00:50;25.50;51.40
63371;DHT22;49504;48.336;14.472;2022-10-22T03:05:51;25.50;51.40
63371;DHT22;49504;48.336;14.472;2022-10-22T03:10:54;25.60;51.50
63371;DHT22;49504;48.336;14.472;2022-10-22T03:15:54;25.60;51.40
63371;DHT22;49504;48.336;14.472;2022-10-22T03:21:03;25.60;51.40
63371;DHT22;49504;48.336;14.472;2022-10-22T03:26:10;25.60;51.50
63371;DHT22;49504;48.336;14.472;2022-10-22T03:31:14;25.60;51.40
63371;DHT22;49504;48.336;14.472;2022-10-22T03:37:38;25.50;50.80
63371;DHT22;49504;48.336;14.472;2022-10-22T03:42:39;25.50;51.40
63371;DHT22;49504;48.336;14.472;2022-10-22T03:47:41;25.50;51.30
63371;DHT22;49504;48.336;14.472;2022-10-22T03:52:43;25.50;51.30
63371;DHT22;49504;48.336;14.472;2022-10-22T03:57:44;25.50;51.30
63371;DHT22;49504;48.336;14.472;2022-10-22T04:02:45;25.50;51.30
63371;DHT22;49504;48.336;14.472;2022-10-22T04:07:47;25.50;51.30
63371;DHT22;49504;48.336;14.472;2022-10-22T04:12:48;25.50;51.30
63371;DHT22;49504;48.336;14.472;2022-10-22T04:21:23;25.50;50.80
63371;DHT22;49504;48.336;14.472;2022-10-22T04:26:24;25.50;51.30
63371;DHT22;49504;48.336;14.472;2022-10-22T04:40:28;25.50;50.80
63371;DHT22;49504;48.336;14.472;2022-10-22T04:45:30;25.50;51.30
63371;DHT22;49504;48.336;14.472;2022-10-22T04:50:32;25.50;51.30
63371;DHT22;49504;48.336;14.472;2022-10-22T04:55:34;25.50;51.40
63371;DHT22;49504;48.336;14.472;2022-10-22T05:00:35;25.50;51.40
63371;DHT22;49504;48.336;14.472;2022-10-22T05:05:36;25.50;51.40
63371;DHT22;49504;48.336;14.472;2022-10-22T05:10:38;25.50;51.30
63371;DHT22;49504;48.336;14.472;2022-10-22T05:15:39;25.50;51.30
63371;DHT22;49504;48.336;14.472;2022-10-22T05:25:27;25.50;50.90
63371;DHT22;49504;48.336;14.472;2022-10-22T05:30:28;25.50;51.50
63371;DHT22;49504;48.336;14.472;2022-10-22T05:35:29;25.50;51.40
63371;DHT22;49504;48.336;14.472;2022-10-22T05:43:02;25.40;50.70
63371;DHT22;49504;48.336;14.472;2022-10-22T05:51:55;25.40;50.70
63371;DHT22;49504;48.336;14.472;2022-10-22T05:56:57;25.40;51.20
63371;DHT22;49504;48.336;14.472;2022-10-22T06:02:00;25.40;51.30
63371;DHT22;49504;48.336;14.472;2022-10-22T06:07:22;25.40;50.60
63371;DHT22;49504;48.336;14.472;2022-10-22T06:12:23;25.40;51.20
63371;DHT22;49504;48.336;14.472;2022-10-22T06:17:25;25.40;50.50
63371;DHT22;49504;48.336;14.472;2022-10-22T06:22:27;25.40;49.20
63371;DHT22;49504;48.336;14.472;2022-10-22T06:27:28;25.40;48.00
63371;DHT22;49504;48.336;14.472;2022-10-22T06:32:29;25.40;48.30
63371;DHT22;49504;48.336;14.472;2022-10-22T06:37:32;25.40;48.10
63371;DHT22;49504;48.336;14.472;2022-10-22T06:42:33;25.30;48.00
63371;DHT22;49504;48.336;14.472;2022-10-22T06:50:38;25.40;48.30
63371;DHT22;49504;48.336;14.472;2022-10-22T06:55:39;25.30;48.10
63371;DHT22;49504;48.336;14.472;2022-10-22T07:00:40;25.30;48.40
63371;DHT22;49504;48.336;14.472;2022-10-22T07:05:42;25.30;49.20
63371;DHT22;49504;48.336;14.472;2022-10-22T07:10:43;25.40;49.50
63371;DHT22;49504;48.336;14.472;2022-10-22T07:15:44;25.30;49.20
63371;DHT22;49504;48.336;14.472;2022-10-22T07:20:47;25.30;48.80
63371;DHT22;49504;48.336;14.472;2022-10-22T07:25:48;25.30;48.70
63371;DHT22;49504;48.336;14.472;2022-10-22T07:32:52;25.30;48.80
63371;DHT22;49504;48.336;14.472;2022-10-22T07:37:53;25.30;49.40
63371;DHT22;49504;48.336;14.472;2022-10-22T07:42:54;25.30;49.30
63371;DHT22;49504;48.336;14.472;2022-10-22T07:47:57;25.30;49.50
63371;DHT22;49504;48.336;14.472;2022-10-22T07:52:58;25.30;49.10
63371;DHT22;49504;48.336;14.472;2022-10-22T08:01:45;25.30;49.00
63371;DHT22;49504;48.336;14.472;2022-10-22T08:06:46;25.30;49.30
63371;DHT22;49504;48.336;14.472;2022-10-22T08:11:47;25.30;48.80
63371;DHT22;49504;48.336;14.472;2022-10-22T08:16:49;25.30;49.10
63371;DHT22;49504;48.336;14.472;2022-10-22T08:21:50;25.30;49.30
63371;DHT22;49504;48.336;14.472;2022-10-22T08:26:52;25.30;49.40
63371;DHT22;49504;48.336;14.472;2022-10-22T08:31:55;25.40;49.00
63371;DHT22;49504;48.336;14.472;2022-10-22T08:40:32;25.30;49.00
63371;DHT22;49504;48.336;14.472;2022-10-22T08:45:39;25.40;49.90
63371;DHT22;49504;48.336;14.472;2022-10-22T08:50:46;25.40;50.00
63371;DHT22;49504;48.336;14.472;2022-10-22T08:57:03;25.30;49.20
63371;DHT22;49504;48.336;14.472;2022-10-22T09:05:44;25.40;49.40
63371;DHT22;49504;48.336;14.472;2022-10-22T09:10:52;25.60;50.60
63371;DHT22;49504;48.336;14.472;2022-10-22T09:15:59;25.70;50.20
63371;DHT22;49504;48.336;14.472;2022-10-22T09:21:14;25.80;50.00
63371;DHT22;49504;48.336;14.472;2022-10-22T09:28:08;26.00;49.20
63371;DHT22;49504;48.336;14.472;2022-10-22T09:33:13;26.30;49.20
63371;DHT22;49504;48.336;14.472;2022-10-22T09:38:21;26.40;48.90
63371;DHT22;49504;48.336;14.472;2022-10-22T09:44:42;26.60;48.60
63371;DHT22;49504;48.336;14.472;2022-10-22T09:49:43;26.90;48.20
63371;DHT22;49504;48.336;14.472;2022-10-22T09:54:44;27.00;47.90
63371;DHT22;49504;48.336;14.472;2022-10-22T10:01:23;27.10;47.80
63371;DHT22;49504;48.336;14.472;2022-10-22T10:06:24;27.30;47.80
63371;DHT22;49504;48.336;14.472;2022-10-22T10:11:28;27.40;47.70
63371;DHT22;49504;48.336;14.472;2022-10-22T10:16:41;27.50;47.50
63371;DHT22;49504;48.336;14.472;2022-10-22T10:25:57;27.70;47.40
63371;DHT22;49504;48.336;14.472;2022-10-22T10:31:14;27.90;47.60
63371;DHT22;49504;48.336;14.472;2022-10-22T10:36:23;27.90;47.10
63371;DHT22;49504;48.336;14.472;2022-10-22T10:41:38;28.00;46.70
63371;DHT22;49504;48.336;14.472;2022-10-22T10:46:51;28.00;46.80
63371;DHT22;49504;48.336;14.472;2022-10-22T10:52:08;28.00;46.40
63371;DHT22;49504;48.336;14.472;2022-10-22T10:57:23;28.00;46.30
63371;DHT22;49504;48.336;14.472;2022-10-22T11:03:07;28.00;46.20
63371;DHT22;49504;48.336;14.472;2022-10-22T11:08:19;27.90;46.50
63371;DHT22;49504;48.336;14.472;2022-10-22T11:13:27;27.90;46.10
63371;DHT22;49504;48.336;14.472;2022-10-22T11:18:36;27.80;46.20
63371;DHT22;49504;48.336;14.472;2022-10-22T11:23:43;27.70;46.10
63371;DHT22;49504;48.336;14.472;2022-10-22T11:28:49;27.60;46.00
63371;DHT22;49504;48.336;14.472;2022-10-22T11:33:57;27.50;46.00
63371;DHT22;49504;48.336;14.472;2022-10-22T11:41:12;27.40;46.00
63371;DHT22;49504;48.336;14.472;2022-10-22T11:46:28;27.40;46.30
63371;DHT22;49504;48.336;14.472;2022-10-22T11:51:36;27.30;46.30
63371;DHT22;49504;48.336;14.472;2022-10-22T11:56:40;27.30;46.30
63371;DHT22;49504;48.336;14.472;2022-10-22T12:01:43;27.30;46.40
63371;DHT22;49504;48.336;14.472;2022-10-22T12:06:58;27.20;46.40
63371;DHT22;49504;48.336;14.472;2022-10-22T12:15:32;27.10;46.20
63371;DHT22;49504;48.336;14.472;2022-10-22T12:20:34;27.10;46.60
63371;DHT22;49504;48.336;14.472;2022-10-22T12:29:30;27.10;46.30
63371;DHT22;49504;48.336;14.472;2022-10-22T12:34:32;27.10;46.70
63371;DHT22;49504;48.336;14.472;2022-10-22T12:39:33;27.10;46.90
63371;DHT22;49504;48.336;14.472;2022-10-22T12:48:16;27.00;46.70
63371;DHT22;49504;48.336;14.472;2022-10-22T12:53:22;27.00;47.40
63371;DHT22;49504;48.336;14.472;2022-10-22T12:58:27;27.00;47.40
63371;DHT22;49504;48.336;14.472;2022-10-22T13:03:42;26.90;46.80
63371;DHT22;49504;48.336;14.472;2022-10-22T13:08:55;26.90;47.00
63371;DHT22;49504;48.336;14.472;2022-10-22T13:14:02;26.80;46.90
63371;DHT22;49504;48.336;14.472;2022-10-22T13:24:48;26.80;46.90
63371;DHT22;49504;48.336;14.472;2022-10-22T13:29:50;26.70;47.00
63371;DHT22;49504;48.336;14.472;2022-10-22T13:34:52;26.70;47.20
63371;DHT22;49504;48.336;14.472;2022-10-22T13:42:37;26.60;46.80
63371;DHT22;49504;48.336;14.472;2022-10-22T13:47:38;26.70;47.40
63371;DHT22;49504;48.336;14.472;2022-10-22T13:52:41;26.60;47.00
63371;DHT22;49504;48.336;14.472;2022-10-22T13:58:00;26.60;46.60
63371;DHT22;49504;48.336;14.472;2022-10-22T14:03:09;26.60;47.20
63371;DHT22;49504;48.336;14.472;2022-10-22T14:08:13;26.60;47.00
63371;DHT22;49504;48.336;14.472;2022-10-22T14:13:18;26.50;46.90
63371;DHT22;49504;48.336;14.472;2022-10-22T14:18:21;26.50;47.10
63371;DHT22;49504;48.336;14.472;2022-10-22T14:27:47;26.40;46.70
63371;DHT22;49504;48.336;14.472;2022-10-22T14:32:49;26.50;47.40
63371;DHT22;49504;48.336;14.472;2022-10-22T14:37:50;26.40;47.10
63371;DHT22;49504;48.336;14.472;2022-10-22T14:42:52;26.50;47.20
63371;DHT22;49504;48.336;14.472;2022-10-22T14:47:53;26.40;47.30
63371;DHT22;49504;48.336;14.472;2022-10-22T14:55:34;26.40;46.90
63371;DHT22;49504;48.336;14.472;2022-10-22T15:00:35;26.40;47.80
63371;DHT22;49504;48.336;14.472;2022-10-22T15:05:39;26.40;47.80
63371;DHT22;49504;48.336;14.472;2022-10-22T15:10:42;26.40;47.90
63371;DHT22;49504;48.336;14.472;2022-10-22T15:20:27;26.40;47.20
63371;DHT22;49504;48.336;14.472;2022-10-22T15:25:28;26.40;47.80
63371;DHT22;49504;48.336;14.472;2022-10-22T15:30:29;26.30;47.90
63371;DHT22;49504;48.336;14.472;2022-10-22T15:35:31;26.30;48.00
63371;DHT22;49504;48.336;14.472;2022-10-22T15:40:32;26.30;47.80
63371;DHT22;49504;48.336;14.472;2022-10-22T15:45:33;26.30;47.90
63371;DHT22;49504;48.336;14.472;2022-10-22T15:50:38;26.30;47.90
63371;DHT22;49504;48.336;14.472;2022-10-22T15:55:39;26.30;48.10
63371;DHT22;49504;48.336;14.472;2022-10-22T16:02:20;26.20;47.30
63371;DHT22;49504;48.336;14.472;2022-10-22T16:07:21;26.30;48.10
63371;DHT22;49504;48.336;14.472;2022-10-22T16:12:22;26.30;48.30
63371;DHT22;49504;48.336;14.472;2022-10-22T16:17:24;26.20;47.90
63371;DHT22;49504;48.336;14.472;2022-10-22T16:22:25;26.20;48.70
63371;DHT22;49504;48.336;14.472;2022-10-22T16:27:26;26.20;48.30
63371;DHT22;49504;48.336;14.472;2022-10-22T16:32:28;26.20;48.70
63371;DHT22;49504;48.336;14.472;2022-10-22T16:37:29;26.20;48.50
63371;DHT22;49504;48.336;14.472;2022-10-22T16:42:30;26.20;48.30
63371;DHT22;49504;48.336;14.472;2022-10-22T16:47:32;26.20;48.20
63371;DHT22;49504;48.336;14.472;2022-10-22T16:52:33;26.30;48.30
63371;DHT22;49504;48.336;14.472;2022-10-22T16:57:34;26.20;48.50
63371;DHT22;49504;48.336;14.472;2022-10-22T17:02:37;26.20;48.30
63371;DHT22;49504;48.336;14.472;2022-10-22T17:07:37;26.20;48.20
63371;DHT22;49504;48.336;14.472;2022-10-22T17:12:40;26.20;48.10
63371;DHT22;49504;48.336;14.472;2022-10-22T17:17:42;26.20;48.10
63371;DHT22;49504;48.336;14.472;2022-10-22T17:22:43;26.10;48.10
63371;DHT22;49504;48.336;14.472;2022-10-22T17:27:45;26.20;48.20
63371;DHT22;49504;48.336;14.472;2022-10-22T17:32:48;26.10;48.10
63371;DHT22;49504;48.336;14.472;2022-10-22T17:37:49;26.10;48.10
63371;DHT22;49504;48.336;14.472;2022-10-22T17:45:23;26.10;47.80
63371;DHT22;49504;48.336;14.472;2022-10-22T17:50:24;26.10;48.50
63371;DHT22;49504;48.336;14.472;2022-10-22T17:55:25;26.10;48.50
63371;DHT22;49504;48.336;14.472;2022-10-22T18:00:30;26.10;48.40
63371;DHT22;49504;48.336;14.472;2022-10-22T18:07:11;26.00;47.90
63371;DHT22;49504;48.336;14.472;2022-10-22T18:12:12;26.00;48.60
63371;DHT22;49504;48.336;14.472;2022-10-22T18:17:14;26.00;48.80
63371;DHT22;49504;48.336;14.472;2022-10-22T18:22:16;26.00;48.70
63371;DHT22;49504;48.336;14.472;2022-10-22T18:27:20;26.00;48.80
63371;DHT22;49504;48.336;14.472;2022-10-22T18:32:21;26.00;48.60
63371;DHT22;49504;48.336;14.472;2022-10-22T18:37:24;26.00;48.60
63371;DHT22;49504;48.336;14.472;2022-10-22T18:45:55;26.00;48.10
63371;DHT22;49504;48.336;14.472;2022-10-22T18:50:59;26.00;48.60
63371;DHT22;49504;48.336;14.472;2022-10-22T18:56:05;26.00;48.70
63371;DHT22;49504;48.336;14.472;2022-10-22T19:04:34;26.00;48.10
63371;DHT22;49504;48.336;14.472;2022-10-22T19:09:36;26.00;48.70
63371;DHT22;49504;48.336;14.472;2022-10-22T19:16:50;26.00;48.20
63371;DHT22;49504;48.336;14.472;2022-10-22T19:21:51;26.00;49.10
63371;DHT22;49504;48.336;14.472;2022-10-22T19:26:52;26.00;49.10
63371;DHT22;49504;48.336;14.472;2022-10-22T19:31:54;26.00;49.20
63371;DHT22;49504;48.336;14.472;2022-10-22T19:36:55;26.00;49.20
63371;DHT22;49504;48.336;14.472;2022-10-22T19:41:56;26.00;49.20
63371;DHT22;49504;48.336;14.472;2022-10-22T19:46:58;26.00;49.20
63371;DHT22;49504;48.336;14.472;2022-10-22T19:51:59;26.00;49.20
63371;DHT22;49504;48.336;14.472;2022-10-22T19:57:00;26.00;49.40
63371;DHT22;49504;48.336;14.472;2022-10-22T20:05:03;25.90;48.60
63371;DHT22;49504;48.336;14.472;2022-10-22T20:10:05;26.00;49.40
63371;DHT22;49504;48.336;14.472;2022-10-22T20:15:08;25.90;49.30
63371;DHT22;49504;48.336;14.472;2022-10-22T20:20:10;25.90;49.40
63371;DHT22;49504;48.336;14.472;2022-10-22T20:25:11;25.90;50.10
63371;DHT22;49504;48.336;14.472;2022-10-22T20:30:13;25.90;49.30
63371;DHT22;49504;48.336;14.472;2022-10-22T20:35:15;25.90;49.40
63371;DHT22;49504;48.336;14.472;2022-10-22T20:40:16;25.90;49.70
63371;DHT22;49504;48.336;14.472;2022-10-22T20:45:18;25.90;49.90
63371;DHT22;49504;48.336;14.472;2022-10-22T20:50:20;25.90;49.50
63371;DHT22;49504;48.336;14.472;2022-10-22T20:55:21;25.90;49.50
63371;DHT22;49504;48.336;14.472;2022-10-22T21:00:22;25.90;49.70
63371;DHT22;49504;48.336;14.472;2022-10-22T21:05:25;25.90;49.50
63371;DHT22;49504;48.336;14.472;2022-10-22T21:10:26;25.90;49.20
63371;DHT22;49504;48.336;14.472;2022-10-22T21:15:27;25.90;49.00
63371;DHT22;49504;48.336;14.472;2022-10-22T21:24:33;25.80;48.50
63371;DHT22;49504;48.336;14.472;2022-10-22T21:29:34;25.80;48.80
63371;DHT22;49504;48.336;14.472;2022-10-22T21:37:30;25.80;48.50
63371;DHT22;49504;48.336;14.472;2022-10-22T21:42:30;25.80;49.10
63371;DHT22;49504;48.336;14.472;2022-10-22T21:47:31;25.80;49.60
63371;DHT22;49504;48.336;14.472;2022-10-22T21:52:34;25.80;49.80
63371;DHT22;49504;48.336;14.472;2022-10-22T21:57:35;25.80;49.90
63371;DHT22;49504;48.336;14.472;2022-10-22T22:02:36;25.80;49.90
63371;DHT22;49504;48.336;14.472;2022-10-22T22:09:27;25.80;49.30
63371;DHT22;49504;48.336;14.472;2022-10-22T22:14:28;25.80;50.30
63371;DHT22;49504;48.336;14.472;2022-10-22T22:19:29;25.80;50.30
63371;DHT22;49504;48.336;14.472;2022-10-22T22:24:32;25.80;50.40
63371;DHT22;49504;48.336;14.472;2022-10-22T22:29:33;25.80;50.40
63371;DHT22;49504;48.336;14.472;2022-10-22T22:35:35;25.80;49.60
63371;DHT22;49504;48.336;14.472;2022-10-22T22:40:37;25.80;50.60
63371;DHT22;49504;48.336;14.472;2022-10-22T22:45:38;25.80;50.70
63371;DHT22;49504;48.336;14.472;2022-10-22T22:50:40;25.80;50.70
63371;DHT22;49504;48.336;14.472;2022-10-22T22:55:41;25.70;50.60
63371;DHT22;49504;48.336;14.472;2022-10-22T23:00:42;25.70;50.80
63371;DHT22;49504;48.336;14.472;2022-10-22T23:08:49;25.70;50.00
63371;DHT22;49504;48.336;14.472;2022-10-22T23:13:53;25.70;50.80
63371;DHT22;49504;48.336;14.472;2022-10-22T23:18:55;25.70;50.90
63371;DHT22;49504;48.336;14.472;2022-10-22T23:24:00;25.70;50.90
63371;DHT22;49504;48.336;14.472;2022-10-22T23:30:33;25.70;50.20
63371;DHT22;49504;48.336;14.472;2022-10-22T23:35:38;25.70;50.90
63371;DHT22;49504;48.336;14.472;2022-10-22T23:40:39;25.70;51.00
63371;DHT22;49504;48.336;14.472;2022-10-22T23:45:42;25.70;51.00
63371;DHT22;49504;48.336;14.472;2022-10-22T23:50:42;25.70;51.30
63371;DHT22;49504;48.336;14.472;2022-10-22T23:55:43;25.70;51.00
